sensor_id;sensor_type;location;lat;lon;timestamp;pressure;altitude;pressure_sealevel;temperature;humidity
58843;BME280;44614;54.356;10.100;2023-03-16T00:01:39;101704.75;;;-0.59;95.30
58843;BME280;44614;54.356;10.100;2023-03-16T00:04:05;101724.25;;;-0.55;95.16
58843;BME280;44614;54.356;10.100;2023-03-16T00:06:30;101720.94;;;-0.59;95.37
58843;BME280;44614;54.356;10.100;2023-03-16T00:08:55;101725.75;;;-0.62;95.51
58843;BME280;44614;54.356;10.100;2023-03-16T00:11:26;101718.03;;;-0.67;95.64
58843;BME280;44614;54.356;10.100;2023-03-16T00:13:51;101714.53;;;-0.79;95.72
58843;BME280;44614;54.356;10.100;2023-03-16T00:16:16;101702.28;;;-0.83;95.74
58843;BME280;44614;54.356;10.100;2023-03-16T00:18:42;101724.81;;;-0.72;95.89
58843;BME280;44614;54.356;10.100;2023-03-16T00:21:07;101722.25;;;-0.74;95.84
58843;BME280;44614;54.356;10.100;2023-03-16T00:23:34;101725.78;;;-0.74;95.31
58843;BME280;44614;54.356;10.100;2023-03-16T00:26:03;101723.94;;;-0.73;95.07
58843;BME280;44614;54.356;10.100;2023-03-16T00:28:30;101727.53;;;-0.72;94.97
58843;BME280;44614;54.356;10.100;2023-03-16T00:31:03;101717.22;;;-0.79;95.19
58843;BME280;44614;54.356;10.100;2023-03-16T00:33:29;101724.94;;;-0.74;94.84
58843;BME280;44614;54.356;10.100;2023-03-16T00:35:59;101721.78;;;-0.79;94.98
58843;BME280;44614;54.356;10.100;2023-03-16T00:38:33;101729.47;;;-0.75;94.86
58843;BME280;44614;54.356;10.100;2023-03-16T00:41:00;101728.88;;;-0.78;94.70
58843;BME280;44614;54.356;10.100;2023-03-16T00:43:29;101722.88;;;-0.82;95.19
58843;BME280;44614;54.356;10.100;2023-03-16T00:46:01;101729.50;;;-0.86;95.41
58843;BME280;44614;54.356;10.100;2023-03-16T00:48:35;101725.22;;;-0.88;95.55
58843;BME280;44614;54.356;10.100;2023-03-16T00:51:05;101727.06;;;-0.89;95.29
58843;BME280;44614;54.356;10.100;2023-03-16T00:53:35;101735.28;;;-0.90;95.53
58843;BME280;44614;54.356;10.100;2023-03-16T00:56:04;101728.44;;;-0.94;95.46
58843;BME280;44614;54.356;10.100;2023-03-16T00:58:34;101715.69;;;-1.04;95.78
58843;BME280;44614;54.356;10.100;2023-03-16T01:01:07;101729.53;;;-0.97;95.82
58843;BME280;44614;54.356;10.100;2023-03-16T01:03:34;101703.25;;;-1.16;95.80
58843;BME280;44614;54.356;10.100;2023-03-16T01:06:12;101739.13;;;-1.04;95.52
58843;BME280;44614;54.356;10.100;2023-03-16T01:08:38;101722.00;;;-1.14;96.21
58843;BME280;44614;54.356;10.100;2023-03-16T01:11:07;101713.41;;;-1.19;95.76
58843;BME280;44614;54.356;10.100;2023-03-16T01:13:33;101700.19;;;-1.34;95.92
58843;BME280;44614;54.356;10.100;2023-03-16T01:15:59;101728.34;;;-1.15;96.55
58843;BME280;44614;54.356;10.100;2023-03-16T01:18:26;101725.91;;;-1.18;95.96
58843;BME280;44614;54.356;10.100;2023-03-16T01:20:52;101725.31;;;-1.22;96.14
58843;BME280;44614;54.356;10.100;2023-03-16T01:23:18;101721.03;;;-1.25;96.21
58843;BME280;44614;54.356;10.100;2023-03-16T01:25:43;101725.31;;;-1.22;96.30
58843;BME280;44614;54.356;10.100;2023-03-16T01:28:17;101720.41;;;-1.28;96.51
58843;BME280;44614;54.356;10.100;2023-03-16T01:30:43;101731.81;;;-1.25;96.16
58843;BME280;44614;54.356;10.100;2023-03-16T01:33:08;101729.34;;;-1.28;96.49
58843;BME280;44614;54.356;10.100;2023-03-16T01:35:33;101730.44;;;-1.30;96.26
58843;BME280;44614;54.356;10.100;2023-03-16T01:37:59;101725.44;;;-1.35;96.12
58843;BME280;44614;54.356;10.100;2023-03-16T01:40:24;101716.88;;;-1.40;96.57
58843;BME280;44614;54.356;10.100;2023-03-16T01:43:00;101725.06;;;-1.41;96.51
58843;BME280;44614;54.356;10.100;2023-03-16T01:48:34;101713.81;;;-1.47;96.84
58843;BME280;44614;54.356;10.100;2023-03-16T01:51:15;101689.59;;;-1.69;96.79
58843;BME280;44614;54.356;10.100;2023-03-16T01:53:46;101721.06;;;-1.47;97.04
58843;BME280;44614;54.356;10.100;2023-03-16T01:56:17;101697.06;;;-1.61;96.46
58843;BME280;44614;54.356;10.100;2023-03-16T01:58:44;101714.91;;;-1.49;96.58
58843;BME280;44614;54.356;10.100;2023-03-16T02:01:11;101716.91;;;-1.51;96.59
58843;BME280;44614;54.356;10.100;2023-03-16T02:03:38;101716.41;;;-1.56;96.26
58843;BME280;44614;54.356;10.100;2023-03-16T02:06:10;101714.69;;;-1.57;96.41
58843;BME280;44614;54.356;10.100;2023-03-16T02:08:37;101711.28;;;-1.59;96.51
58843;BME280;44614;54.356;10.100;2023-03-16T02:11:06;101707.22;;;-1.65;96.61
58843;BME280;44614;54.356;10.100;2023-03-16T02:13:33;101718.59;;;-1.61;96.66
58843;BME280;44614;54.356;10.100;2023-03-16T02:16:01;101717.97;;;-1.65;96.45
58843;BME280;44614;54.356;10.100;2023-03-16T02:18:27;101719.22;;;-1.69;96.47
58843;BME280;44614;54.356;10.100;2023-03-16T02:20:55;101721.91;;;-1.69;96.43
58843;BME280;44614;54.356;10.100;2023-03-16T02:23:26;101717.63;;;-1.72;96.55
58843;BME280;44614;54.356;10.100;2023-03-16T02:31:45;101715.41;;;-1.78;96.96
58843;BME280;44614;54.356;10.100;2023-03-16T02:34:12;101678.47;;;-1.98;96.88
58843;BME280;44614;54.356;10.100;2023-03-16T02:36:39;101696.31;;;-1.97;96.88
58843;BME280;44614;54.356;10.100;2023-03-16T02:39:05;101714.66;;;-1.80;97.07
58843;BME280;44614;54.356;10.100;2023-03-16T02:41:31;101712.97;;;-1.81;96.58
58843;BME280;44614;54.356;10.100;2023-03-16T02:44:10;101715.78;;;-1.82;96.81
58843;BME280;44614;54.356;10.100;2023-03-16T02:46:39;101706.97;;;-1.84;96.80
58843;BME280;44614;54.356;10.100;2023-03-16T02:51:44;101705.13;;;-1.95;97.03
58843;BME280;44614;54.356;10.100;2023-03-16T02:54:09;101688.72;;;-2.03;97.11
58843;BME280;44614;54.356;10.100;2023-03-16T02:56:34;101715.78;;;-1.82;97.57
58843;BME280;44614;54.356;10.100;2023-03-16T02:59:00;101714.66;;;-1.80;97.50
58843;BME280;44614;54.356;10.100;2023-03-16T03:01:25;101711.75;;;-1.77;97.97
58843;BME280;44614;54.356;10.100;2023-03-16T03:03:50;101716.13;;;-1.76;98.09
58843;BME280;44614;54.356;10.100;2023-03-16T03:06:16;101705.50;;;-1.77;98.52
58843;BME280;44614;54.356;10.100;2023-03-16T03:08:41;101713.72;;;-1.67;98.71
58843;BME280;44614;54.356;10.100;2023-03-16T03:11:07;101713.44;;;-1.64;98.61
58843;BME280;44614;54.356;10.100;2023-03-16T03:13:33;101718.59;;;-1.61;98.87
58843;BME280;44614;54.356;10.100;2023-03-16T03:15:58;101724.84;;;-1.61;98.92
58843;BME280;44614;54.356;10.100;2023-03-16T03:18:24;101718.34;;;-1.58;98.98
58843;BME280;44614;54.356;10.100;2023-03-16T03:20:49;101711.75;;;-1.65;98.98
58843;BME280;44614;54.356;10.100;2023-03-16T03:23:14;101674.91;;;-1.76;99.40
58843;BME280;44614;54.356;10.100;2023-03-16T03:25:41;101719.69;;;-1.53;99.80
58843;BME280;44614;54.356;10.100;2023-03-16T03:28:06;101705.25;;;-1.52;100.00
58843;BME280;44614;54.356;10.100;2023-03-16T03:30:32;101684.81;;;-1.65;99.60
58843;BME280;44614;54.356;10.100;2023-03-16T03:32:57;101705.97;;;-1.50;100.00
58843;BME280;44614;54.356;10.100;2023-03-16T03:35:23;101710.41;;;-1.49;100.00
58843;BME280;44614;54.356;10.100;2023-03-16T03:37:48;101704.28;;;-1.51;100.00
58843;BME280;44614;54.356;10.100;2023-03-16T03:40:15;101704.13;;;-1.49;100.00
58843;BME280;44614;54.356;10.100;2023-03-16T03:42:41;101720.06;;;-1.46;100.00
58843;BME280;44614;54.356;10.100;2023-03-16T03:45:08;101725.44;;;-1.46;100.00
58843;BME280;44614;54.356;10.100;2023-03-16T03:47:36;101713.72;;;-1.45;100.00
58843;BME280;44614;54.356;10.100;2023-03-16T03:50:02;101704.50;;;-1.54;100.00
58843;BME280;44614;54.356;10.100;2023-03-16T03:52:28;101687.97;;;-1.60;100.00
58843;BME280;44614;54.356;10.100;2023-03-16T03:54:53;101700.72;;;-1.51;100.00
58843;BME280;44614;54.356;10.100;2023-03-16T03:57:18;101716.03;;;-1.40;100.00
58843;BME280;44614;54.356;10.100;2023-03-16T03:59:44;101712.50;;;-1.41;100.00
58843;BME280;44614;54.356;10.100;2023-03-16T04:02:09;101721.19;;;-1.37;100.00
58843;BME280;44614;54.356;10.100;2023-03-16T04:04:35;101712.50;;;-1.41;100.00
58843;BME280;44614;54.356;10.100;2023-03-16T04:07:01;101716.13;;;-1.31;100.00
58843;BME280;44614;54.356;10.100;2023-03-16T04:09:26;101716.63;;;-1.26;100.00
58843;BME280;44614;54.356;10.100;2023-03-16T04:11:52;101722.13;;;-1.27;100.00
58843;BME280;44614;54.356;10.100;2023-03-16T04:14:17;101721.75;;;-1.23;100.00
58843;BME280;44614;54.356;10.100;2023-03-16T04:16:42;101719.06;;;-1.23;100.00
58843;BME280;44614;54.356;10.100;2023-03-16T04:19:10;101721.41;;;-1.18;100.00
58843;BME280;44614;54.356;10.100;2023-03-16T04:21:36;101720.41;;;-1.17;100.00
58843;BME280;44614;54.356;10.100;2023-03-16T04:24:02;101725.78;;;-1.17;100.00
58843;BME280;44614;54.356;10.100;2023-03-16T04:26:29;101716.59;;;-1.14;100.00
58843;BME280;44614;54.356;10.100;2023-03-16T04:28:54;101722.84;;;-1.14;100.00
58843;BME280;44614;54.356;10.100;2023-03-16T04:31:19;101684.91;;;-1.33;100.00
58843;BME280;44614;54.356;10.100;2023-03-16T04:33:45;101721.63;;;-1.10;100.00
58843;BME280;44614;54.356;10.100;2023-03-16T04:36:10;101721.47;;;-1.08;100.00
58843;BME280;44614;54.356;10.100;2023-03-16T04:38:36;101720.25;;;-1.04;100.00
58843;BME280;44614;54.356;10.100;2023-03-16T04:41:04;101714.59;;;-1.01;100.00
58843;BME280;44614;54.356;10.100;2023-03-16T04:43:30;101714.47;;;-1.00;100.00
58843;BME280;44614;54.356;10.100;2023-03-16T04:45:59;101718.03;;;-0.99;100.00
58843;BME280;44614;54.356;10.100;2023-03-16T04:48:24;101677.66;;;-1.21;100.00
58843;BME280;44614;54.356;10.100;2023-03-16T04:50:50;101708.72;;;-0.95;100.00
58843;BME280;44614;54.356;10.100;2023-03-16T04:53:15;101703.19;;;-0.93;100.00
58843;BME280;44614;54.356;10.100;2023-03-16T04:55:41;101698.44;;;-1.01;100.00
58843;BME280;44614;54.356;10.100;2023-03-16T04:58:06;101716.66;;;-0.93;100.00
58843;BME280;44614;54.356;10.100;2023-03-16T05:00:31;101721.31;;;-0.95;100.00
58843;BME280;44614;54.356;10.100;2023-03-16T05:02:57;101722.31;;;-0.96;100.00
58843;BME280;44614;54.356;10.100;2023-03-16T05:05:23;101704.91;;;-1.04;100.00
58843;BME280;44614;54.356;10.100;2023-03-16T05:07:49;101714.47;;;-1.00;100.00
58843;BME280;44614;54.356;10.100;2023-03-16T05:10:16;101713.00;;;-1.04;100.00
58843;BME280;44614;54.356;10.100;2023-03-16T05:12:43;101714.34;;;-0.98;100.00
58843;BME280;44614;54.356;10.100;2023-03-16T05:15:09;101714.97;;;-0.94;100.00
58843;BME280;44614;54.356;10.100;2023-03-16T05:17:34;101729.28;;;-0.94;100.00
58843;BME280;44614;54.356;10.100;2023-03-16T05:20:00;101699.66;;;-1.05;100.00
58843;BME280;44614;54.356;10.100;2023-03-16T05:22:25;101729.03;;;-0.91;100.00
58843;BME280;44614;54.356;10.100;2023-03-16T05:24:50;101738.84;;;-0.90;100.00
58843;BME280;44614;54.356;10.100;2023-03-16T05:27:16;101726.06;;;-0.88;100.00
58843;BME280;44614;54.356;10.100;2023-03-16T05:29:42;101719.34;;;-0.93;100.00
58843;BME280;44614;54.356;10.100;2023-03-16T05:32:11;101720.34;;;-0.94;100.00
58843;BME280;44614;54.356;10.100;2023-03-16T05:34:37;101733.47;;;-1.01;100.00
58843;BME280;44614;54.356;10.100;2023-03-16T05:37:03;101737.34;;;-0.83;100.00
58843;BME280;44614;54.356;10.100;2023-03-16T05:39:28;101744.22;;;-0.79;100.00
58843;BME280;44614;54.356;10.100;2023-03-16T05:41:55;101742.22;;;-0.77;100.00
58843;BME280;44614;54.356;10.100;2023-03-16T05:44:21;101737.44;;;-0.73;100.00
58843;BME280;44614;54.356;10.100;2023-03-16T05:46:46;101745.16;;;-0.68;100.00
58843;BME280;44614;54.356;10.100;2023-03-16T05:49:12;101746.88;;;-0.67;100.00
58843;BME280;44614;54.356;10.100;2023-03-16T05:51:37;101747.59;;;-0.65;100.00
58843;BME280;44614;54.356;10.100;2023-03-16T05:54:03;101742.06;;;-0.64;100.00
58843;BME280;44614;54.356;10.100;2023-03-16T05:56:28;101744.78;;;-0.64;100.00
58843;BME280;44614;54.356;10.100;2023-03-16T05:58:55;101757.72;;;-0.58;100.00
58843;BME280;44614;54.356;10.100;2023-03-16T06:01:21;101725.53;;;-0.70;100.00
58843;BME280;44614;54.356;10.100;2023-03-16T06:03:48;101740.66;;;-0.47;100.00
58843;BME280;44614;54.356;10.100;2023-03-16T06:06:16;101728.84;;;-0.46;100.00
58843;BME280;44614;54.356;10.100;2023-03-16T06:08:42;101734.34;;;-0.36;100.00
58843;BME280;44614;54.356;10.100;2023-03-16T06:11:08;101740.09;;;-0.30;100.00
58843;BME280;44614;54.356;10.100;2023-03-16T06:13:34;101703.88;;;-0.48;100.00
58843;BME280;44614;54.356;10.100;2023-03-16T06:16:00;101742.97;;;-0.21;100.00
58843;BME280;44614;54.356;10.100;2023-03-16T06:18:26;101742.31;;;-0.14;100.00
58843;BME280;44614;54.356;10.100;2023-03-16T06:20:51;101710.59;;;-0.21;100.00
58843;BME280;44614;54.356;10.100;2023-03-16T06:23:16;101730.78;;;0.05;100.00
58843;BME280;44614;54.356;10.100;2023-03-16T06:25:46;101702.47;;;-0.01;100.00
58843;BME280;44614;54.356;10.100;2023-03-16T06:28:11;101739.41;;;0.20;100.00
58843;BME280;44614;54.356;10.100;2023-03-16T06:30:37;101739.72;;;0.27;100.00
58843;BME280;44614;54.356;10.100;2023-03-16T06:33:02;101732.94;;;0.32;100.00
58843;BME280;44614;54.356;10.100;2023-03-16T06:35:27;101729.81;;;0.37;100.00
58843;BME280;44614;54.356;10.100;2023-03-16T06:37:53;101709.47;;;0.33;100.00
58843;BME280;44614;54.356;10.100;2023-03-16T06:40:18;101695.53;;;0.37;100.00
58843;BME280;44614;54.356;10.100;2023-03-16T06:42:43;101707.28;;;0.57;100.00
58843;BME280;44614;54.356;10.100;2023-03-16T06:45:09;101715.59;;;0.65;100.00
58843;BME280;44614;54.356;10.100;2023-03-16T06:47:35;101710.03;;;0.67;100.00
58843;BME280;44614;54.356;10.100;2023-03-16T06:50:02;101721.28;;;0.72;100.00
58843;BME280;44614;54.356;10.100;2023-03-16T06:52:27;101716.44;;;0.66;100.00
58843;BME280;44614;54.356;10.100;2023-03-16T06:54:53;101736.13;;;0.87;100.00
58843;BME280;44614;54.356;10.100;2023-03-16T06:57:18;101741.00;;;0.93;100.00
58843;BME280;44614;54.356;10.100;2023-03-16T06:59:44;101747.41;;;1.02;100.00
58843;BME280;44614;54.356;10.100;2023-03-16T07:02:11;101739.88;;;0.96;100.00
58843;BME280;44614;54.356;10.100;2023-03-16T07:04:38;101736.47;;;1.13;99.63
58843;BME280;44614;54.356;10.100;2023-03-16T07:07:03;101741.34;;;1.19;99.09
58843;BME280;44614;54.356;10.100;2023-03-16T07:09:29;101741.47;;;1.28;98.10
58843;BME280;44614;54.356;10.100;2023-03-16T07:11:54;101738.34;;;1.32;97.47
58843;BME280;44614;54.356;10.100;2023-03-16T07:14:19;101732.22;;;1.40;97.41
58843;BME280;44614;54.356;10.100;2023-03-16T07:16:46;101747.06;;;1.45;96.46
58843;BME280;44614;54.356;10.100;2023-03-16T07:19:12;101742.34;;;1.48;95.89
58843;BME280;44614;54.356;10.100;2023-03-16T07:21:37;101737.91;;;1.56;95.49
58843;BME280;44614;54.356;10.100;2023-03-16T07:24:07;101736.94;;;1.57;94.00
58843;BME280;44614;54.356;10.100;2023-03-16T07:26:33;101735.22;;;1.56;93.04
58843;BME280;44614;54.356;10.100;2023-03-16T07:28:58;101738.06;;;1.74;92.55
58843;BME280;44614;54.356;10.100;2023-03-16T07:31:24;101724.25;;;1.67;92.79
58843;BME280;44614;54.356;10.100;2023-03-16T07:33:49;101714.28;;;1.68;91.64
58843;BME280;44614;54.356;10.100;2023-03-16T07:36:15;101718.25;;;1.74;90.10
58843;BME280;44614;54.356;10.100;2023-03-16T07:38:40;101754.13;;;2.05;90.31
58843;BME280;44614;54.356;10.100;2023-03-16T07:41:06;101764.97;;;2.14;90.91
58843;BME280;44614;54.356;10.100;2023-03-16T07:43:32;101750.97;;;2.19;89.04
58843;BME280;44614;54.356;10.100;2023-03-16T07:45:57;101739.47;;;2.07;88.30
58843;BME280;44614;54.356;10.100;2023-03-16T07:48:23;101746.53;;;2.28;88.19
58843;BME280;44614;54.356;10.100;2023-03-16T07:50:48;101752.66;;;2.30;88.77
58843;BME280;44614;54.356;10.100;2023-03-16T07:53:14;101748.94;;;2.31;87.78
58843;BME280;44614;54.356;10.100;2023-03-16T07:55:40;101758.66;;;2.33;87.32
58843;BME280;44614;54.356;10.100;2023-03-16T07:58:07;101729.31;;;2.19;86.51
58843;BME280;44614;54.356;10.100;2023-03-16T08:00:34;101746.50;;;2.37;86.50
58843;BME280;44614;54.356;10.100;2023-03-16T08:02:59;101750.91;;;2.48;87.38
58843;BME280;44614;54.356;10.100;2023-03-16T08:05:26;101717.53;;;2.38;87.04
58843;BME280;44614;54.356;10.100;2023-03-16T08:07:51;101733.16;;;2.63;87.80
58843;BME280;44614;54.356;10.100;2023-03-16T08:10:17;101735.69;;;2.65;85.39
58843;BME280;44614;54.356;10.100;2023-03-16T08:12:43;101742.78;;;2.76;85.00
58843;BME280;44614;54.356;10.100;2023-03-16T08:15:08;101719.69;;;2.72;84.71
58843;BME280;44614;54.356;10.100;2023-03-16T08:17:34;101748.97;;;2.96;84.71
58843;BME280;44614;54.356;10.100;2023-03-16T08:20:01;101738.66;;;2.99;82.39
58843;BME280;44614;54.356;10.100;2023-03-16T08:22:30;101740.63;;;3.07;83.38
58843;BME280;44614;54.356;10.100;2023-03-16T08:24:56;101734.81;;;3.20;84.39
58843;BME280;44614;54.356;10.100;2023-03-16T08:27:22;101741.66;;;3.24;80.92
58843;BME280;44614;54.356;10.100;2023-03-16T08:29:51;101737.63;;;3.28;80.45
58843;BME280;44614;54.356;10.100;2023-03-16T08:32:16;101736.16;;;3.33;80.35
58843;BME280;44614;54.356;10.100;2023-03-16T08:34:42;101731.13;;;3.38;81.46
58843;BME280;44614;54.356;10.100;2023-03-16T08:37:07;101742.22;;;3.45;76.08
58843;BME280;44614;54.356;10.100;2023-03-16T08:39:33;101747.03;;;3.51;77.77
58843;BME280;44614;54.356;10.100;2023-03-16T08:41:59;101733.00;;;3.56;79.47
58843;BME280;44614;54.356;10.100;2023-03-16T08:44:25;101739.88;;;3.68;78.69
58843;BME280;44614;54.356;10.100;2023-03-16T08:46:51;101743.69;;;3.75;77.61
58843;BME280;44614;54.356;10.100;2023-03-16T08:49:16;101734.53;;;3.76;77.75
58843;BME280;44614;54.356;10.100;2023-03-16T08:51:44;101741.88;;;3.84;77.84
58843;BME280;44614;54.356;10.100;2023-03-16T08:54:10;101741.28;;;3.90;77.43
58843;BME280;44614;54.356;10.100;2023-03-16T08:56:36;101740.47;;;3.98;77.19
58843;BME280;44614;54.356;10.100;2023-03-16T08:59:01;101747.13;;;4.03;76.55
58843;BME280;44614;54.356;10.100;2023-03-16T09:01:27;101721.22;;;3.91;72.29
58843;BME280;44614;54.356;10.100;2023-03-16T09:03:53;101733.47;;;4.13;76.35
58843;BME280;44614;54.356;10.100;2023-03-16T09:06:19;101736.06;;;4.23;75.85
58843;BME280;44614;54.356;10.100;2023-03-16T09:08:46;101736.44;;;4.28;71.62
58843;BME280;44614;54.356;10.100;2023-03-16T09:11:14;101730.22;;;4.35;74.83
58843;BME280;44614;54.356;10.100;2023-03-16T09:13:41;101733.06;;;4.34;73.92
58843;BME280;44614;54.356;10.100;2023-03-16T09:16:08;101734.50;;;4.46;75.14
58843;BME280;44614;54.356;10.100;2023-03-16T09:18:34;101737.44;;;4.53;75.51
58843;BME280;44614;54.356;10.100;2023-03-16T09:21:02;101727.41;;;4.53;71.63
58843;BME280;44614;54.356;10.100;2023-03-16T09:23:29;101704.75;;;4.45;74.57
58843;BME280;44614;54.356;10.100;2023-03-16T09:25:59;101698.28;;;4.46;73.05
58843;BME280;44614;54.356;10.100;2023-03-16T09:28:26;101728.13;;;4.63;70.61
58843;BME280;44614;54.356;10.100;2023-03-16T09:30:53;101731.91;;;4.71;73.47
58843;BME280;44614;54.356;10.100;2023-03-16T09:33:19;101722.63;;;4.81;74.79
58843;BME280;44614;54.356;10.100;2023-03-16T09:35:45;101718.56;;;4.85;74.18
58843;BME280;44614;54.356;10.100;2023-03-16T09:38:11;101729.28;;;4.95;74.89
58843;BME280;44614;54.356;10.100;2023-03-16T09:40:36;101720.16;;;5.04;72.53
58843;BME280;44614;54.356;10.100;2023-03-16T09:45:38;101712.84;;;5.13;75.59
58843;BME280;44614;54.356;10.100;2023-03-16T09:48:09;101712.22;;;5.27;73.48
58843;BME280;44614;54.356;10.100;2023-03-16T09:50:37;101719.88;;;5.40;73.38
58843;BME280;44614;54.356;10.100;2023-03-16T09:53:12;101714.78;;;5.45;68.60
58843;BME280;44614;54.356;10.100;2023-03-16T09:55:45;101712.09;;;5.53;71.94
58843;BME280;44614;54.356;10.100;2023-03-16T09:58:16;101704.25;;;5.58;70.94
58843;BME280;44614;54.356;10.100;2023-03-16T10:01:12;101705.09;;;5.59;68.60
58843;BME280;44614;54.356;10.100;2023-03-16T10:06:30;101674.94;;;5.60;69.98
58843;BME280;44614;54.356;10.100;2023-03-16T10:09:06;101705.78;;;5.69;62.33
58843;BME280;44614;54.356;10.100;2023-03-16T10:11:40;101699.47;;;5.85;69.61
58843;BME280;44614;54.356;10.100;2023-03-16T10:14:23;101672.38;;;5.83;66.71
58843;BME280;44614;54.356;10.100;2023-03-16T10:16:53;101691.78;;;6.13;64.54
58843;BME280;44614;54.356;10.100;2023-03-16T10:22:01;101668.47;;;6.10;67.48
58843;BME280;44614;54.356;10.100;2023-03-16T10:27:02;101674.53;;;6.29;65.53
58843;BME280;44614;54.356;10.100;2023-03-16T10:29:31;101681.34;;;6.33;63.74
58843;BME280;44614;54.356;10.100;2023-03-16T10:32:06;101682.38;;;6.32;64.04
58843;BME280;44614;54.356;10.100;2023-03-16T10:34:35;101683.53;;;6.46;65.84
58843;BME280;44614;54.356;10.100;2023-03-16T10:37:02;101688.09;;;6.62;67.21
58843;BME280;44614;54.356;10.100;2023-03-16T10:39:35;101669.44;;;6.73;64.10
58843;BME280;44614;54.356;10.100;2023-03-16T10:42:00;101685.06;;;6.88;65.08
58843;BME280;44614;54.356;10.100;2023-03-16T10:44:27;101677.44;;;6.83;64.10
58843;BME280;44614;54.356;10.100;2023-03-16T10:46:58;101676.75;;;6.81;63.15
58843;BME280;44614;54.356;10.100;2023-03-16T10:49:35;101672.44;;;6.87;59.70
58843;BME280;44614;54.356;10.100;2023-03-16T10:52:10;101666.63;;;6.90;63.27
58843;BME280;44614;54.356;10.100;2023-03-16T10:54:39;101659.31;;;6.82;59.01
58843;BME280;44614;54.356;10.100;2023-03-16T10:59:54;101661.75;;;6.77;62.72
58843;BME280;44614;54.356;10.100;2023-03-16T11:02:24;101663.09;;;6.81;63.94
58843;BME280;44614;54.356;10.100;2023-03-16T11:04:54;101651.97;;;6.82;65.42
58843;BME280;44614;54.356;10.100;2023-03-16T11:07:21;101648.97;;;7.00;63.29
58843;BME280;44614;54.356;10.100;2023-03-16T11:09:50;101642.59;;;6.85;60.54
58843;BME280;44614;54.356;10.100;2023-03-16T11:12:29;101648.31;;;6.98;61.30
58843;BME280;44614;54.356;10.100;2023-03-16T11:15:02;101641.28;;;7.04;63.77
58843;BME280;44614;54.356;10.100;2023-03-16T11:17:46;101629.81;;;7.08;60.65
58843;BME280;44614;54.356;10.100;2023-03-16T11:20:22;101625.31;;;7.16;61.46
58843;BME280;44614;54.356;10.100;2023-03-16T11:22:49;101616.50;;;7.28;64.22
58843;BME280;44614;54.356;10.100;2023-03-16T11:25:20;101625.88;;;7.34;62.86
58843;BME280;44614;54.356;10.100;2023-03-16T11:28:36;101625.75;;;7.27;62.47
58843;BME280;44614;54.356;10.100;2023-03-16T11:33:14;101606.63;;;7.27;60.21
58843;BME280;44614;54.356;10.100;2023-03-16T11:46:52;101588.78;;;7.54;60.25
58843;BME280;44614;54.356;10.100;2023-03-16T11:49:41;101585.44;;;7.67;60.55
58843;BME280;44614;54.356;10.100;2023-03-16T11:52:23;101593.09;;;7.72;53.33
58843;BME280;44614;54.356;10.100;2023-03-16T11:57:32;101587.78;;;7.70;48.41
58843;BME280;44614;54.356;10.100;2023-03-16T12:05:55;101585.63;;;7.66;51.84
58843;BME280;44614;54.356;10.100;2023-03-16T12:13:45;101572.03;;;7.57;52.45
58843;BME280;44614;54.356;10.100;2023-03-16T12:19:05;101558.47;;;7.64;55.66
58843;BME280;44614;54.356;10.100;2023-03-16T12:21:38;101553.50;;;7.68;54.72
58843;BME280;44614;54.356;10.100;2023-03-16T12:24:13;101539.06;;;7.74;55.01
58843;BME280;44614;54.356;10.100;2023-03-16T12:26:41;101550.19;;;7.87;55.09
58843;BME280;44614;54.356;10.100;2023-03-16T12:31:49;101532.84;;;7.95;52.94
58843;BME280;44614;54.356;10.100;2023-03-16T12:34:31;101541.69;;;7.97;51.46
58843;BME280;44614;54.356;10.100;2023-03-16T12:43:08;101512.47;;;7.97;53.83
58843;BME280;44614;54.356;10.100;2023-03-16T12:45:47;101522.06;;;8.23;55.19
58843;BME280;44614;54.356;10.100;2023-03-16T12:50:51;101504.72;;;8.67;55.51
58843;BME280;44614;54.356;10.100;2023-03-16T12:56:34;101499.81;;;8.84;53.93
58843;BME280;44614;54.356;10.100;2023-03-16T12:59:03;101499.44;;;8.87;52.01
58843;BME280;44614;54.356;10.100;2023-03-16T13:02:00;101485.75;;;8.87;42.03
58843;BME280;44614;54.356;10.100;2023-03-16T13:07:21;101463.63;;;8.45;42.07
58843;BME280;44614;54.356;10.100;2023-03-16T13:09:53;101481.09;;;8.44;45.46
58843;BME280;44614;54.356;10.100;2023-03-16T13:12:30;101481.56;;;8.48;52.29
58843;BME280;44614;54.356;10.100;2023-03-16T13:14:57;101426.03;;;8.18;52.01
58843;BME280;44614;54.356;10.100;2023-03-16T13:17:29;101471.47;;;8.48;44.51
58843;BME280;44614;54.356;10.100;2023-03-16T13:20:23;101469.03;;;8.39;41.84
58843;BME280;44614;54.356;10.100;2023-03-16T13:23:05;101469.94;;;8.31;47.52
58843;BME280;44614;54.356;10.100;2023-03-16T13:25:42;101460.53;;;8.34;47.50
58843;BME280;44614;54.356;10.100;2023-03-16T13:28:12;101455.72;;;8.36;48.70
58843;BME280;44614;54.356;10.100;2023-03-16T13:30:44;101440.97;;;8.37;46.18
58843;BME280;44614;54.356;10.100;2023-03-16T13:33:33;101453.53;;;8.31;44.19
58843;BME280;44614;54.356;10.100;2023-03-16T13:36:05;101426.59;;;8.28;46.35
58843;BME280;44614;54.356;10.100;2023-03-16T13:38:30;101437.22;;;8.38;47.26
58843;BME280;44614;54.356;10.100;2023-03-16T13:41:01;101433.25;;;8.40;50.25
58843;BME280;44614;54.356;10.100;2023-03-16T13:43:29;101428.56;;;8.56;47.85
58843;BME280;44614;54.356;10.100;2023-03-16T13:45:56;101429.72;;;8.46;47.71
58843;BME280;44614;54.356;10.100;2023-03-16T13:48:22;101406.81;;;8.47;49.57
58843;BME280;44614;54.356;10.100;2023-03-16T13:50:52;101412.47;;;8.67;49.79
58843;BME280;44614;54.356;10.100;2023-03-16T13:53:29;101415.31;;;8.81;46.45
58843;BME280;44614;54.356;10.100;2023-03-16T13:55:56;101400.78;;;8.80;44.67
58843;BME280;44614;54.356;10.100;2023-03-16T13:58:27;101414.84;;;8.77;42.94
58843;BME280;44614;54.356;10.100;2023-03-16T14:00:56;101381.59;;;8.52;46.62